Time;durP1;ratioP1;P1;durP2;ratioP2;P2;SDS_P1;SDS_P2;PMS_P1;PMS_P2;Temp;Humidity;BMP_temperature;BMP_pressure;BME280_temperature;BME280_humidity;BME280_pressure;Samples;Min_cycle;Max_cycle;Signal;HPM_P1;HPM_P2
2022/08/22 00:00:25;;;;;;;2.13;1.93;;;16.10;79.80;;;;;;5080639;28;20709;-83
2022/08/22 00:03:20;;;;;;;2.63;2.30;;;16.10;78.70;;;;;;5086268;28;20605;-83
2022/08/22 00:06:05;;;;;;;2.00;1.90;;;16.10;78.40;;;;;;5074874;28;20661;-86
2022/08/22 00:08:42;;;;;;;3.10;2.80;;;16.10;78.60;;;;;;5079082;28;20713;-86
2022/08/22 00:11:17;;;;;;;2.13;1.93;;;16.00;79.00;;;;;;5082285;28;20841;-83
2022/08/22 00:13:51;;;;;;;2.33;2.13;;;16.10;77.80;;;;;;5074717;28;21044;-86
2022/08/22 00:16:27;;;;;;;1.80;1.67;;;16.10;78.70;;;;;;5072433;28;20701;-86
2022/08/22 00:19:03;;;;;;;3.53;2.40;;;16.10;78.70;;;;;;5079256;28;20626;-85
2022/08/22 00:21:38;;;;;;;2.17;1.83;;;16.10;80.10;;;;;;5088202;28;21083;-83
2022/08/22 00:24:23;;;;;;;2.30;2.00;;;16.20;79.90;;;;;;5085630;28;20627;-85
2022/08/22 00:26:55;;;;;;;2.57;1.73;;;16.20;79.80;;;;;;5075801;28;20716;-86
2022/08/22 00:29:27;;;;;;;2.30;2.10;;;16.30;79.60;;;;;;5077815;28;20746;-83
2022/08/22 00:32:02;;;;;;;2.23;2.03;;;16.30;79.10;;;;;;5067745;28;20626;-86
2022/08/22 00:34:34;;;;;;;3.60;2.63;;;16.30;79.80;;;;;;5081962;28;20612;-84
2022/08/22 00:37:09;;;;;;;3.90;2.50;;;16.20;80.90;;;;;;5067225;28;20992;-85
2022/08/22 00:39:41;;;;;;;2.20;2.00;;;16.30;81.50;;;;;;5068328;28;20610;-85
2022/08/22 00:42:30;;;;;;;3.23;2.00;;;16.30;82.10;;;;;;5067536;28;20629;-85
2022/08/22 00:45:16;;;;;;;1.93;1.83;;;16.30;81.50;;;;;;5087585;28;20652;-86
2022/08/22 00:47:56;;;;;;;2.37;2.17;;;16.30;80.50;;;;;;5085414;28;21018;-84
2022/08/22 00:50:58;;;;;;;1.70;1.60;;;16.30;80.70;;;;;;5078788;28;20617;-83
2022/08/22 00:53:38;;;;;;;2.57;2.00;;;16.20;80.60;;;;;;5070784;28;20644;-85
2022/08/22 00:56:43;;;;;;;2.53;2.33;;;16.20;80.10;;;;;;5086015;28;20636;-86
2022/08/22 00:59:30;;;;;;;1.87;1.70;;;16.20;79.90;;;;;;5067079;28;20716;-83
2022/08/22 01:02:07;;;;;;;4.00;1.60;;;16.10;80.40;;;;;;5073619;28;21328;-83
2022/08/22 01:04:47;;;;;;;2.37;2.17;;;16.10;82.80;;;;;;5086039;28;20681;-85
2022/08/22 01:07:29;;;;;;;2.77;2.57;;;16.00;82.80;;;;;;5086572;28;20732;-83
2022/08/22 01:10:04;;;;;;;3.20;1.90;;;16.00;81.80;;;;;;5072624;28;20656;-85
2022/08/22 01:12:52;;;;;;;1.87;1.67;;;15.90;81.80;;;;;;5073455;28;21258;-85
2022/08/22 01:15:24;;;;;;;2.57;2.10;;;16.00;82.80;;;;;;5071714;28;20652;-81
2022/08/22 01:18:15;;;;;;;2.53;2.23;;;16.00;83.20;;;;;;5086812;28;20624;-83
2022/08/22 01:21:31;;;;;;;1.83;1.73;;;15.90;81.40;;;;;;5072880;28;20673;-84
2022/08/22 01:24:33;;;;;;;2.30;1.77;;;16.00;81.00;;;;;;5083453;28;20616;-86
2022/08/22 01:27:40;;;;;;;1.80;1.70;;;15.90;81.20;;;;;;5074171;28;20655;-83
2022/08/22 01:30:18;;;;;;;2.37;2.17;;;15.90;80.40;;;;;;5071007;28;20620;-83
2022/08/22 01:33:32;;;;;;;1.83;1.73;;;15.90;80.70;;;;;;5070605;28;20706;-84
2022/08/22 01:36:31;;;;;;;3.47;2.30;;;15.80;81.80;;;;;;5055414;28;21212;-85
2022/08/22 01:39:28;;;;;;;2.57;2.37;;;15.90;82.20;;;;;;5057666;28;21267;-84
2022/08/22 01:42:31;;;;;;;2.90;2.43;;;15.80;82.60;;;;;;5070286;28;20625;-83
2022/08/22 01:45:23;;;;;;;2.50;2.30;;;15.80;82.80;;;;;;5070556;28;21035;-86
2022/08/22 01:47:55;;;;;;;2.33;2.10;;;15.60;81.40;;;;;;5063143;28;21267;-84
2022/08/22 01:50:29;;;;;;;2.37;2.17;;;15.50;82.50;;;;;;5072240;28;20662;-83
2022/08/22 01:53:05;;;;;;;2.13;1.90;;;15.50;83.10;;;;;;5078371;28;20623;-85
2022/08/22 01:55:38;;;;;;;4.40;2.37;;;15.50;82.70;;;;;;5086215;28;20726;-84
2022/08/22 01:58:16;;;;;;;3.03;2.37;;;15.30;81.90;;;;;;5088901;28;20797;-82
2022/08/22 02:01:12;;;;;;;3.67;2.27;;;15.30;82.60;;;;;;5080679;28;20633;-84
2022/08/22 02:03:52;;;;;;;6.87;4.07;;;15.40;82.40;;;;;;5075989;28;20993;-85
2022/08/22 02:06:34;;;;;;;2.80;2.40;;;15.50;81.40;;;;;;5081706;28;21224;-81
2022/08/22 02:09:08;;;;;;;3.33;3.03;;;15.40;81.70;;;;;;5068078;28;20649;-85
2022/08/22 02:11:47;;;;;;;2.03;1.90;;;15.50;81.40;;;;;;5070690;28;20691;-85
2022/08/22 02:14:25;;;;;;;4.17;3.00;;;15.60;81.10;;;;;;5082757;28;20620;-83
2022/08/22 02:16:59;;;;;;;1.80;1.70;;;15.60;80.90;;;;;;5070084;28;20974;-84
2022/08/22 02:19:36;;;;;;;4.23;2.77;;;15.60;80.40;;;;;;5070456;28;20659;-84
2022/08/22 02:22:19;;;;;;;3.00;2.80;;;15.60;81.50;;;;;;5071021;28;20609;-85
2022/08/22 02:24:58;;;;;;;2.53;2.33;;;15.50;83.20;;;;;;5087393;28;20707;-82
2022/08/22 02:27:34;;;;;;;1.57;1.47;;;15.90;83.80;;;;;;5069349;28;20629;-85
2022/08/22 02:30:07;;;;;;;4.10;1.87;;;15.40;83.10;;;;;;5070277;28;20714;-85
2022/08/22 02:32:45;;;;;;;2.53;2.33;;;15.40;84.60;;;;;;5069691;28;21175;-82
2022/08/22 02:35:24;;;;;;;3.50;2.37;;;15.20;83.30;;;;;;5070201;28;20621;-83
2022/08/22 02:38:01;;;;;;;2.53;1.70;;;15.20;85.60;;;;;;5069471;28;20633;-82
2022/08/22 02:40:38;;;;;;;2.87;2.30;;;15.20;84.50;;;;;;5070282;28;21184;-81
2022/08/22 02:43:12;;;;;;;3.03;2.73;;;15.40;84.20;;;;;;5073813;28;20681;-83
2022/08/22 02:45:50;;;;;;;3.40;2.23;;;15.40;83.30;;;;;;5080924;28;21313;-82
2022/08/22 02:48:32;;;;;;;2.27;2.07;;;15.20;85.50;;;;;;5078214;28;20629;-85
2022/08/22 02:51:05;;;;;;;3.83;2.20;;;15.20;85.70;;;;;;5070012;28;20628;-85
2022/08/22 02:53:38;;;;;;;2.70;2.30;;;15.10;85.10;;;;;;5082787;28;21201;-85
2022/08/22 02:56:12;;;;;;;2.93;2.73;;;15.20;85.80;;;;;;5084718;28;20690;-85
2022/08/22 02:58:48;;;;;;;2.67;2.30;;;15.30;84.10;;;;;;5076598;28;20617;-85
2022/08/22 03:01:34;;;;;;;3.17;2.43;;;15.20;85.00;;;;;;5071879;28;20706;-83
2022/08/22 03:04:42;;;;;;;3.07;2.70;;;15.10;86.70;;;;;;5078252;28;20613;-86
2022/08/22 03:07:16;;;;;;;3.50;2.37;;;15.10;86.70;;;;;;5072179;28;20625;-84
2022/08/22 03:09:48;;;;;;;2.40;2.20;;;15.00;86.20;;;;;;5088179;28;20718;-82
2022/08/22 03:12:21;;;;;;;3.10;2.80;;;14.90;87.20;;;;;;5075310;28;20712;-83
2022/08/22 03:14:58;;;;;;;4.20;2.87;;;14.90;88.30;;;;;;5069417;28;20638;-82
2022/08/22 03:17:30;;;;;;;2.40;2.20;;;15.00;88.30;;;;;;5071127;28;20638;-83
2022/08/22 03:20:07;;;;;;;2.93;2.73;;;15.00;88.60;;;;;;5072034;28;20614;-83
2022/08/22 03:22:42;;;;;;;2.40;2.20;;;14.80;88.40;;;;;;5087648;28;20661;-84
2022/08/22 03:25:18;;;;;;;3.70;3.20;;;14.90;88.20;;;;;;5075181;28;20625;-84
2022/08/22 03:27:54;;;;;;;2.50;2.07;;;14.90;88.20;;;;;;5069871;28;20766;-86
2022/08/22 03:30:28;;;;;;;2.57;2.37;;;14.90;88.70;;;;;;5073562;28;20682;-84
2022/08/22 03:32:58;;;;;;;4.60;3.20;;;14.70;89.20;;;;;;5089514;28;20613;-83
2022/08/22 03:35:34;;;;;;;2.40;2.20;;;14.60;90.10;;;;;;5087537;28;20616;-82
2022/08/22 03:38:20;;;;;;;3.37;2.30;;;14.60;90.40;;;;;;5072075;28;20664;-83
2022/08/22 03:41:02;;;;;;;3.47;2.43;;;14.70;90.80;;;;;;5089116;28;20624;-82
2022/08/22 03:43:58;;;;;;;3.60;2.83;;;14.70;90.00;;;;;;5077912;28;20701;-82
2022/08/22 03:46:57;;;;;;;2.40;2.20;;;14.60;90.70;;;;;;5068123;28;20631;-83
2022/08/22 03:49:56;;;;;;;4.00;3.37;;;14.60;91.40;;;;;;5068868;28;21190;-82
2022/08/22 03:53:05;;;;;;;3.20;2.40;;;14.50;91.50;;;;;;5087124;28;21206;-83
2022/08/22 03:55:49;;;;;;;4.73;2.93;;;14.50;91.80;;;;;;5076798;28;20690;-82
2022/08/22 03:58:41;;;;;;;3.83;2.97;;;14.40;91.90;;;;;;5072513;28;20670;-85
2022/08/22 04:01:32;;;;;;;4.03;3.40;;;14.50;92.00;;;;;;5088102;28;20609;-83
2022/08/22 04:04:22;;;;;;;2.93;2.30;;;14.50;91.90;;;;;;5088293;28;20635;-83
2022/08/22 04:07:17;;;;;;;4.53;2.40;;;14.50;92.20;;;;;;5074977;28;20720;-83
2022/08/22 04:10:08;;;;;;;3.20;2.90;;;14.40;92.30;;;;;;5077271;28;20666;-83
2022/08/22 04:13:04;;;;;;;5.13;3.00;;;14.30;92.50;;;;;;5072160;28;20640;-84
2022/08/22 04:15:48;;;;;;;3.80;3.03;;;14.30;92.50;;;;;;5082866;28;21091;-82
2022/08/22 04:18:35;;;;;;;3.17;2.87;;;14.40;91.80;;;;;;5073318;28;20655;-82
2022/08/22 04:21:32;;;;;;;4.63;2.90;;;14.30;91.40;;;;;;5088666;28;20644;-84
2022/08/22 04:24:30;;;;;;;3.37;3.07;;;14.40;91.40;;;;;;5062798;28;21045;-84
2022/08/22 04:27:01;;;;;;;4.43;3.10;;;14.30;92.00;;;;;;5061221;28;20625;-82
2022/08/22 04:29:32;;;;;;;3.33;2.97;;;14.20;92.00;;;;;;5079985;28;21238;-85
2022/08/22 04:32:10;;;;;;;3.33;2.87;;;14.10;93.20;;;;;;5067918;28;20667;-84
2022/08/22 04:34:44;;;;;;;3.03;2.80;;;14.20;93.50;;;;;;5082734;28;20625;-83
2022/08/22 04:37:18;;;;;;;3.63;3.30;;;14.10;93.60;;;;;;5077755;28;21054;-83
2022/08/22 04:39:50;;;;;;;4.37;2.97;;;14.20;93.70;;;;;;5079117;28;20629;-83
2022/08/22 04:42:22;;;;;;;2.80;2.60;;;14.20;93.20;;;;;;5083230;28;20680;-83
2022/08/22 04:44:54;;;;;;;2.70;2.50;;;14.20;94.00;;;;;;5068091;28;20632;-84
2022/08/22 04:47:46;;;;;;;3.53;2.37;;;14.10;94.70;;;;;;5068640;28;20684;-81
2022/08/22 04:50:26;;;;;;;6.63;2.70;;;14.00;94.70;;;;;;5066836;28;21246;-84
2022/08/22 04:53:26;;;;;;;2.80;2.33;;;14.20;95.40;;;;;;5074661;28;21112;-85
2022/08/22 04:56:07;;;;;;;2.47;2.27;;;14.10;95.20;;;;;;5085932;28;20976;-81
2022/08/22 04:58:45;;;;;;;2.80;2.60;;;14.20;95.40;;;;;;5086169;28;21251;-85
2022/08/22 05:01:39;;;;;;;3.60;3.30;;;14.30;94.90;;;;;;5071793;28;20664;-83
2022/08/22 05:04:15;;;;;;;3.57;3.27;;;14.30;95.40;;;;;;5087452;28;20624;-82
2022/08/22 05:06:52;;;;;;;8.70;4.80;;;14.30;96.00;;;;;;5073422;28;20677;-82
2022/08/22 05:09:27;;;;;;;4.00;3.67;;;14.20;96.60;;;;;;5068334;28;20656;-81
2022/08/22 05:12:03;;;;;;;4.20;3.07;;;14.30;97.10;;;;;;5068304;28;20678;-85
2022/08/22 05:14:44;;;;;;;4.13;3.10;;;14.40;96.30;;;;;;5085532;28;20628;-82
2022/08/22 05:17:20;;;;;;;2.43;2.20;;;14.60;95.70;;;;;;5083754;28;20620;-85
2022/08/22 05:19:52;;;;;;;3.33;2.50;;;14.80;95.10;;;;;;5073661;28;20627;-82
2022/08/22 05:22:29;;;;;;;4.53;3.97;;;14.80;95.20;;;;;;5085683;28;20621;-85
2022/08/22 05:24:59;;;;;;;2.97;2.33;;;14.80;95.80;;;;;;5076726;28;20666;-85
2022/08/22 05:27:35;;;;;;;3.23;2.50;;;14.60;96.10;;;;;;5087013;28;20743;-83
2022/08/22 05:30:12;;;;;;;3.20;2.90;;;14.80;96.00;;;;;;5070387;28;20726;-83
2022/08/22 05:32:49;;;;;;;3.40;2.80;;;14.90;96.40;;;;;;5071822;28;21008;-83
2022/08/22 05:35:22;;;;;;;3.83;2.43;;;14.80;96.70;;;;;;5076712;28;21032;-84
2022/08/22 05:37:55;;;;;;;3.27;2.97;;;14.80;96.50;;;;;;5067347;28;20609;-82
2022/08/22 05:40:30;;;;;;;3.50;3.20;;;14.80;96.60;;;;;;5087244;28;20624;-83
2022/08/22 05:42:58;;;;;;;4.77;2.27;;;15.00;96.10;;;;;;5072679;28;20653;-83
2022/08/22 05:45:31;;;;;;;3.23;2.90;;;15.10;96.00;;;;;;5075768;28;20628;-84
2022/08/22 05:48:12;;;;;;;3.50;2.97;;;15.20;96.00;;;;;;5086821;28;20733;-84
2022/08/22 05:50:44;;;;;;;4.23;2.80;;;15.20;96.00;;;;;;5070234;28;20773;-85
2022/08/22 05:53:33;;;;;;;;;;;;;;;;;;;;;
2022/08/22 05:56:11;;;;;;;3.83;3.10;;;15.40;95.30;;;;;;5065247;28;20649;-83
2022/08/22 05:59:02;;;;;;;4.13;3.67;;;15.70;94.50;;;;;;5080909;28;20612;-83
2022/08/22 06:01:35;;;;;;;4.90;3.13;;;15.90;94.20;;;;;;5075534;28;20624;-83
2022/08/22 06:04:11;;;;;;;3.10;2.80;;;16.10;93.90;;;;;;5090083;28;20725;-83
2022/08/22 06:06:43;;;;;;;2.97;2.73;;;16.20;93.20;;;;;;5080536;28;21241;-84
2022/08/22 06:09:19;;;;;;;4.37;3.67;;;16.40;92.90;;;;;;5078149;28;20625;-83
2022/08/22 06:11:51;;;;;;;3.20;2.20;;;16.50;92.40;;;;;;5078522;28;20624;-84
2022/08/22 06:14:29;;;;;;;2.57;2.40;;;16.60;92.70;;;;;;5078805;28;20725;-82
2022/08/22 06:17:04;;;;;;;5.23;3.70;;;16.60;92.40;;;;;;5088813;28;21008;-84
2022/08/22 06:19:34;;;;;;;5.17;3.60;;;16.70;92.40;;;;;;5089504;28;20651;-82
2022/08/22 06:22:01;;;;;;;3.30;2.70;;;16.80;92.20;;;;;;5082083;28;20633;-85
2022/08/22 06:24:32;;;;;;;2.80;2.60;;;16.90;92.30;;;;;;5071092;28;20609;-84
2022/08/22 06:27:04;;;;;;;4.67;2.90;;;17.10;91.90;;;;;;5069216;28;21237;-83
2022/08/22 06:29:37;;;;;;;3.00;2.70;;;17.20;92.00;;;;;;5069555;28;20712;-83
2022/08/22 06:32:11;;;;;;;3.13;2.93;;;17.30;91.50;;;;;;5079917;28;20621;-83
2022/08/22 06:34:42;;;;;;;3.70;3.00;;;17.40;91.40;;;;;;5085627;28;20726;-83
2022/08/22 06:37:16;;;;;;;3.17;2.60;;;17.50;91.30;;;;;;5068380;28;21214;-84
2022/08/22 06:39:49;;;;;;;3.13;2.83;;;17.60;91.00;;;;;;5070843;28;20621;-84
2022/08/22 06:42:20;;;;;;;2.47;2.27;;;17.70;90.90;;;;;;5079737;28;21198;-83
2022/08/22 06:44:51;;;;;;;3.40;2.43;;;17.70;91.00;;;;;;5081036;28;20669;-83
2022/08/22 06:47:22;;;;;;;2.13;1.97;;;17.80;90.80;;;;;;5089334;28;20629;-84
2022/08/22 06:49:52;;;;;;;3.20;2.50;;;17.90;90.70;;;;;;5077714;28;20764;-85
2022/08/22 06:52:22;;;;;;;3.67;3.37;;;18.10;90.80;;;;;;5076648;28;20736;-83
2022/08/22 06:54:58;;;;;;;2.80;2.50;;;18.10;90.80;;;;;;5074202;28;21028;-84
2022/08/22 06:57:30;;;;;;;2.00;1.80;;;18.20;90.10;;;;;;5083883;28;20709;-85
2022/08/22 06:59:57;;;;;;;2.50;2.30;;;18.30;89.70;;;;;;5079262;28;20728;-85
2022/08/22 07:02:28;;;;;;;3.40;3.10;;;18.40;88.80;;;;;;5080465;28;20621;-84
2022/08/22 07:04:55;;;;;;;2.50;2.30;;;18.50;87.00;;;;;;5084948;28;21789;-86
2022/08/22 07:07:26;;;;;;;2.97;2.73;;;18.50;87.70;;;;;;5088023;28;20633;-85
2022/08/22 07:09:56;;;;;;;2.43;2.23;;;18.60;87.10;;;;;;5079943;28;20668;-84
2022/08/22 07:12:29;;;;;;;3.63;2.43;;;18.60;88.00;;;;;;5083764;28;20660;-84
2022/08/22 07:15:08;;;;;;;2.07;1.97;;;18.70;87.10;;;;;;5077436;28;20668;-85
2022/08/22 07:17:35;;;;;;;1.90;1.80;;;18.90;85.60;;;;;;5071515;28;20632;-85
2022/08/22 07:20:15;;;;;;;2.80;2.10;;;19.00;85.90;;;;;;5069019;28;20630;-84
2022/08/22 07:22:52;;;;;;;3.60;2.20;;;19.00;85.00;;;;;;5082542;28;20644;-85
2022/08/22 07:25:23;;;;;;;2.63;2.43;;;19.30;84.30;;;;;;5079985;28;20709;-84
2022/08/22 07:28:02;;;;;;;3.70;2.30;;;19.50;83.90;;;;;;5097801;27;20629;-84
2022/08/22 07:30:42;;;;;;;5.37;3.03;;;19.60;83.90;;;;;;5074738;28;20704;-86
2022/08/22 07:33:23;;;;;;;2.60;2.40;;;19.50;82.20;;;;;;5078656;28;21361;-84
2022/08/22 07:35:58;;;;;;;2.10;1.90;;;19.60;83.40;;;;;;5077948;28;20694;-85
2022/08/22 07:38:35;;;;;;;3.00;2.50;;;19.70;82.00;;;;;;5085549;28;20633;-83
2022/08/22 07:41:11;;;;;;;3.40;2.10;;;19.90;80.40;;;;;;5078850;28;20625;-84
2022/08/22 07:43:42;;;;;;;2.13;1.80;;;20.00;79.60;;;;;;5070650;28;20664;-84
2022/08/22 07:46:20;;;;;;;2.33;2.13;;;20.00;76.60;;;;;;5071725;28;20664;-82
2022/08/22 07:48:51;;;;;;;1.90;1.80;;;20.10;77.10;;;;;;5087692;28;20644;-85
2022/08/22 07:51:27;;;;;;;2.63;2.43;;;20.40;76.60;;;;;;5088085;28;20696;-86
2022/08/22 07:53:59;;;;;;;2.40;2.20;;;20.40;76.40;;;;;;5084238;28;20663;-83
2022/08/22 07:56:31;;;;;;;2.50;2.30;;;20.60;75.50;;;;;;5067718;28;20695;-85
2022/08/22 07:59:03;;;;;;;2.57;2.13;;;20.60;76.20;;;;;;5071492;28;21171;-84
2022/08/22 08:01:30;;;;;;;2.87;1.87;;;20.70;75.40;;;;;;5071751;28;20736;-84
2022/08/22 08:04:00;;;;;;;2.00;1.90;;;20.90;75.30;;;;;;5070465;28;20694;-84
2022/08/22 08:06:30;;;;;;;2.50;2.30;;;21.10;75.20;;;;;;5067188;28;20657;-84
2022/08/22 08:08:58;;;;;;;3.80;2.30;;;21.20;74.50;;;;;;5067143;28;20630;-85
2022/08/22 08:11:30;;;;;;;1.57;1.43;;;21.20;71.90;;;;;;5085743;28;20749;-85
2022/08/22 08:14:02;;;;;;;2.47;2.00;;;21.20;73.10;;;;;;5076652;28;21286;-85
2022/08/22 08:16:35;;;;;;;3.50;2.30;;;21.40;72.00;;;;;;5082018;28;21061;-84
2022/08/22 08:19:03;;;;;;;2.07;1.83;;;21.30;71.60;;;;;;5075988;28;20661;-83
2022/08/22 08:21:33;;;;;;;3.80;2.50;;;21.50;71.10;;;;;;5082969;28;20632;-85
2022/08/22 08:24:01;;;;;;;3.93;2.07;;;21.50;72.70;;;;;;5072076;28;20673;-84
2022/08/22 08:26:34;;;;;;;2.47;2.27;;;21.60;71.70;;;;;;5086269;28;21452;-84
2022/08/22 08:29:02;;;;;;;2.40;2.20;;;21.60;72.20;;;;;;5067294;28;20675;-83
2022/08/22 08:31:34;;;;;;;2.73;2.20;;;21.70;74.00;;;;;;5067065;28;20675;-84
2022/08/22 08:34:05;;;;;;;2.47;2.27;;;22.10;70.80;;;;;;5065851;28;20617;-84
2022/08/22 08:36:41;;;;;;;2.50;2.30;;;22.10;72.00;;;;;;5070736;28;20644;-86
2022/08/22 08:39:18;;;;;;;1.83;1.73;;;22.00;71.60;;;;;;5086935;28;20634;-85
2022/08/22 08:43:25;;;;;;;3.10;1.80;;;22.30;71.70;;;;;;5085740;28;20616;-85
2022/08/22 08:45:35;;;;;;;2.10;1.90;;;22.30;71.30;;;;;;5033970;28;20745;-84
2022/08/22 08:48:32;;;;;;;2.03;1.93;;;22.60;69.50;;;;;;5032167;28;20741;-85
2022/08/22 08:51:14;;;;;;;1.87;1.77;;;22.80;69.30;;;;;;5075911;28;20753;-85
2022/08/22 08:54:08;;;;;;;2.00;1.80;;;22.90;68.30;;;;;;5068004;28;21297;-84
2022/08/22 08:56:44;;;;;;;2.33;2.10;;;23.00;69.20;;;;;;5065593;28;20995;-87
2022/08/22 08:59:31;;;;;;;2.50;2.30;;;23.20;68.60;;;;;;5070571;28;20639;-85
2022/08/22 09:02:27;;;;;;;2.07;1.83;;;23.40;66.90;;;;;;5077455;28;20667;-85
2022/08/22 09:05:26;;;;;;;2.77;2.57;;;23.40;67.60;;;;;;5079595;28;20667;-84
2022/08/22 09:08:27;;;;;;;2.43;2.23;;;23.60;66.00;;;;;;5058286;28;20953;-84
2022/08/22 09:11:25;;;;;;;2.23;2.03;;;23.70;67.60;;;;;;5084585;28;20756;-85
2022/08/22 09:14:10;;;;;;;2.40;2.20;;;23.70;67.10;;;;;;5054560;28;21044;-86
2022/08/22 09:16:53;;;;;;;1.83;1.73;;;23.70;67.40;;;;;;5086223;28;20640;-83
2022/08/22 09:19:46;;;;;;;2.77;2.30;;;23.80;65.90;;;;;;5073149;28;20633;-85
2022/08/22 09:22:29;;;;;;;2.40;2.30;;;23.90;65.90;;;;;;5058492;28;20721;-85
2022/08/22 09:25:17;;;;;;;2.47;2.03;;;24.00;65.80;;;;;;5075800;28;20622;-85
2022/08/22 09:27:51;;;;;;;2.20;1.73;;;24.10;65.40;;;;;;5078056;28;20636;-84
2022/08/22 09:30:22;;;;;;;2.27;2.03;;;24.10;65.10;;;;;;5074054;28;20617;-84
2022/08/22 09:32:56;;;;;;;2.57;2.37;;;24.40;63.20;;;;;;5070879;28;20620;-85
2022/08/22 09:35:34;;;;;;;2.37;2.17;;;24.50;62.90;;;;;;5085806;28;20652;-82
2022/08/22 09:38:26;;;;;;;2.67;2.43;;;24.60;60.80;;;;;;5085627;28;20698;-86
2022/08/22 09:41:01;;;;;;;1.93;1.80;;;24.60;63.80;;;;;;5076788;28;20665;-85
2022/08/22 09:43:35;;;;;;;2.67;2.47;;;24.60;62.80;;;;;;5075744;28;20637;-85
2022/08/22 09:46:12;;;;;;;3.13;2.03;;;24.70;62.10;;;;;;5073716;28;21329;-85
2022/08/22 09:48:50;;;;;;;3.73;2.40;;;24.70;63.10;;;;;;5075884;28;20660;-85
2022/08/22 09:51:28;;;;;;;3.37;2.50;;;24.90;61.40;;;;;;5087404;28;21217;-84
2022/08/22 09:54:16;;;;;;;2.50;2.30;;;24.90;61.40;;;;;;5073193;28;20631;-85
2022/08/22 09:56:53;;;;;;;2.40;2.00;;;24.90;62.80;;;;;;5077108;28;20689;-85
2022/08/22 09:59:26;;;;;;;2.30;2.10;;;25.00;60.50;;;;;;5084013;28;21051;-85
2022/08/22 10:01:59;;;;;;;2.50;2.30;;;25.20;60.30;;;;;;5087280;28;20625;-82
2022/08/22 10:04:52;;;;;;;2.50;2.30;;;25.20;58.70;;;;;;5082784;28;21242;-86
2022/08/22 10:07:53;;;;;;;2.57;2.27;;;25.20;59.00;;;;;;5080968;28;20632;-85
2022/08/22 10:10:40;;;;;;;2.40;2.20;;;25.30;58.80;;;;;;5077486;28;20912;-84
2022/08/22 10:13:18;;;;;;;2.83;2.63;;;25.20;59.00;;;;;;5075088;28;20656;-85
2022/08/22 10:15:53;;;;;;;2.50;1.80;;;25.40;58.30;;;;;;5071749;28;20632;-86
2022/08/22 10:18:29;;;;;;;2.17;1.97;;;25.50;58.20;;;;;;5077634;28;20694;-85
2022/08/22 10:21:08;;;;;;;1.60;1.50;;;25.70;57.50;;;;;;5069360;28;20620;-86
2022/08/22 10:23:40;;;;;;;2.10;1.90;;;25.80;57.60;;;;;;5069649;28;20747;-85
2022/08/22 10:26:21;;;;;;;3.73;2.43;;;26.00;54.80;;;;;;5072780;28;20637;-85
2022/08/22 10:28:54;;;;;;;3.40;2.20;;;26.00;56.10;;;;;;5068742;28;21483;-86
2022/08/22 10:31:29;;;;;;;3.80;2.23;;;26.10;57.40;;;;;;5087560;28;21346;-85
2022/08/22 10:34:04;;;;;;;3.23;2.23;;;26.10;54.60;;;;;;5088460;28;21221;-85
2022/08/22 10:36:45;;;;;;;2.40;2.20;;;26.30;54.80;;;;;;5088208;28;20723;-85
2022/08/22 10:39:20;;;;;;;1.60;1.50;;;26.30;56.20;;;;;;5089160;28;20666;-85
2022/08/22 10:42:06;;;;;;;2.77;1.70;;;26.50;55.40;;;;;;5087247;28;21022;-85
2022/08/22 10:44:41;;;;;;;1.90;1.80;;;26.50;53.90;;;;;;5072036;28;20639;-82
2022/08/22 10:47:13;;;;;;;2.43;2.23;;;26.60;53.20;;;;;;5087516;28;20704;-86
2022/08/22 10:49:48;;;;;;;2.00;1.80;;;26.60;55.60;;;;;;5086254;28;21043;-85
2022/08/22 10:52:23;;;;;;;1.80;1.70;;;26.70;54.20;;;;;;5088231;28;21240;-86
2022/08/22 10:54:56;;;;;;;2.20;2.00;;;26.80;52.80;;;;;;5086393;28;20647;-85
2022/08/22 10:57:50;;;;;;;1.90;1.73;;;26.90;52.60;;;;;;5081978;28;20716;-86
2022/08/22 11:00:36;;;;;;;2.40;2.10;;;26.90;51.00;;;;;;5075506;28;20698;-85
2022/08/22 11:03:13;;;;;;;2.40;2.20;;;27.00;51.90;;;;;;5076734;28;20669;-85
2022/08/22 11:05:42;;;;;;;2.37;2.17;;;27.00;53.80;;;;;;5068194;28;20763;-87
2022/08/22 11:08:36;;;;;;;2.30;2.20;;;27.10;53.40;;;;;;5081756;28;21215;-86
2022/08/22 11:11:20;;;;;;;1.93;1.83;;;27.50;53.10;;;;;;5067939;28;20772;-86
2022/08/22 11:14:12;;;;;;;2.60;1.77;;;27.70;51.70;;;;;;5068551;28;20955;-86
2022/08/22 11:16:54;;;;;;;2.07;1.90;;;27.70;50.20;;;;;;5068106;28;20617;-85
2022/08/22 11:19:37;;;;;;;2.10;2.00;;;27.70;49.40;;;;;;5088617;28;20689;-86
2022/08/22 11:22:14;;;;;;;2.50;2.30;;;27.80;51.30;;;;;;5083588;28;20633;-86
2022/08/22 11:25:23;;;;;;;2.70;2.40;;;27.90;50.60;;;;;;5073562;28;20709;-86
2022/08/22 11:28:04;;;;;;;3.30;2.50;;;28.20;52.50;;;;;;5082912;28;20732;-85
2022/08/22 11:30:35;;;;;;;2.23;2.13;;;28.50;51.20;;;;;;5089595;28;21166;-85
2022/08/22 11:33:25;;;;;;;2.00;1.90;;;28.50;49.60;;;;;;5086677;28;21221;-85
2022/08/22 11:36:05;;;;;;;2.20;2.00;;;28.70;49.10;;;;;;5071304;28;20649;-85
2022/08/22 11:38:37;;;;;;;2.53;2.33;;;29.00;48.80;;;;;;5067870;28;20730;-85
2022/08/22 11:41:12;;;;;;;2.47;2.30;;;28.90;48.80;;;;;;5071765;28;20645;-85
2022/08/22 11:43:48;;;;;;;1.53;1.43;;;29.20;49.30;;;;;;5071874;28;20668;-86
2022/08/22 11:46:21;;;;;;;3.57;2.17;;;29.40;48.10;;;;;;5084214;28;20628;-85
2022/08/22 11:49:03;;;;;;;1.80;1.70;;;29.40;47.20;;;;;;5068202;28;21019;-86
2022/08/22 11:51:59;;;;;;;2.07;1.97;;;29.70;47.30;;;;;;5074732;28;21006;-85
2022/08/22 11:54:40;;;;;;;2.70;2.50;;;30.20;46.70;;;;;;5079598;28;20773;-86
2022/08/22 11:57:11;;;;;;;2.17;1.97;;;30.20;48.20;;;;;;5080497;28;20264;-84
2022/08/22 12:00:00;;;;;;;2.00;1.90;;;31.00;46.30;;;;;;5068185;28;21200;-86
2022/08/22 12:02:47;;;;;;;1.70;1.60;;;32.00;44.00;;;;;;5082817;28;20616;-84
2022/08/22 12:05:22;;;;;;;2.33;2.20;;;33.30;41.80;;;;;;5085902;28;21216;-85
2022/08/22 12:07:55;;;;;;;1.77;1.67;;;33.60;42.40;;;;;;5081823;28;20624;-85
2022/08/22 12:10:29;;;;;;;2.40;1.83;;;33.70;42.20;;;;;;5077252;28;20658;-86
2022/08/22 12:13:02;;;;;;;2.83;2.43;;;34.60;40.60;;;;;;5086783;28;21282;-85
2022/08/22 12:15:36;;;;;;;2.43;2.23;;;35.40;39.30;;;;;;5068279;28;20724;-86
2022/08/22 12:18:30;;;;;;;1.90;1.80;;;35.00;38.80;;;;;;5073024;28;20693;-87
2022/08/22 12:21:22;;;;;;;2.53;2.33;;;34.00;39.30;;;;;;5066877;28;21224;-86
2022/08/22 12:24:20;;;;;;;3.00;2.20;;;34.20;40.60;;;;;;5074715;28;20632;-85
2022/08/22 12:26:59;;;;;;;2.13;2.03;;;34.80;39.30;;;;;;5084513;28;20714;-84
2022/08/22 12:29:37;;;;;;;2.40;2.20;;;35.10;38.70;;;;;;5080932;28;20705;-86
2022/08/22 12:32:47;;;;;;;2.23;2.13;;;35.30;39.10;;;;;;5072042;28;20310;-86
2022/08/22 12:35:29;;;;;;;2.25;2.10;;;35.40;38.10;;;;;;5083778;28;20232;-86
2022/08/22 12:38:05;;;;;;;1.70;1.58;;;36.00;37.60;;;;;;5068640;28;20289;-86
2022/08/22 12:40:47;;;;;;;1.67;1.58;;;35.70;36.90;;;;;;5067174;28;20699;-86
2022/08/22 12:43:35;;;;;;;2.60;2.00;;;34.40;39.00;;;;;;5068820;28;20221;-86
2022/08/22 12:46:33;;;;;;;2.23;2.13;;;33.00;40.50;;;;;;5086354;28;20856;-86
2022/08/22 12:49:28;;;;;;;2.07;1.90;;;31.70;40.30;;;;;;5084589;28;20624;-86
2022/08/22 12:52:18;;;;;;;1.97;1.87;;;30.70;41.40;;;;;;5085493;28;20668;-86
2022/08/22 12:55:14;;;;;;;2.30;2.10;;;30.60;44.10;;;;;;5077783;28;20637;-86
2022/08/22 12:57:49;;;;;;;2.73;2.17;;;31.70;43.20;;;;;;5066097;28;20732;-84
2022/08/22 13:00:30;;;;;;;4.83;2.27;;;33.10;39.70;;;;;;5078534;28;20636;-86
2022/08/22 13:03:02;;;;;;;1.60;1.50;;;32.50;40.20;;;;;;5085689;28;20671;-86
2022/08/22 13:05:30;;;;;;;2.20;2.03;;;31.60;40.20;;;;;;5076227;28;20682;-83
2022/08/22 13:08:01;;;;;;;2.17;2.00;;;30.80;40.70;;;;;;5065231;28;20660;-85
2022/08/22 13:10:39;;;;;;;2.20;2.00;;;30.10;41.30;;;;;;5066187;28;20628;-85
2022/08/22 13:13:07;;;;;;;1.97;1.80;;;30.00;42.60;;;;;;5078211;28;20810;-84
2022/08/22 13:15:37;;;;;;;1.90;1.80;;;31.10;42.50;;;;;;5086571;28;20620;-85
2022/08/22 13:18:12;;;;;;;1.87;1.77;;;32.50;42.20;;;;;;5085952;28;21024;-86
2022/08/22 13:20:43;;;;;;;2.53;1.83;;;33.60;40.30;;;;;;5086973;28;20953;-85
2022/08/22 13:23:16;;;;;;;2.30;2.10;;;34.70;39.70;;;;;;5072206;28;20640;-84
2022/08/22 13:26:07;;;;;;;1.90;1.80;;;35.30;38.50;;;;;;5079603;28;20731;-84
2022/08/22 13:28:40;;;;;;;2.20;2.00;;;35.90;37.00;;;;;;5085647;28;20613;-85
2022/08/22 13:31:08;;;;;;;1.90;1.80;;;34.60;38.20;;;;;;5066690;28;20654;-86
2022/08/22 13:33:45;;;;;;;2.00;1.90;;;32.90;41.10;;;;;;5066831;28;20686;-86
2022/08/22 13:36:16;;;;;;;2.50;2.20;;;33.20;41.70;;;;;;5086119;28;20624;-86
2022/08/22 13:38:48;;;;;;;2.37;2.17;;;34.00;39.80;;;;;;5086766;28;20929;-84
2022/08/22 13:41:21;;;;;;;2.00;1.90;;;34.10;38.80;;;;;;5086749;28;20812;-85
2022/08/22 13:44:11;;;;;;;1.93;1.83;;;34.60;39.10;;;;;;5076571;28;20679;-86
2022/08/22 13:46:38;;;;;;;1.73;1.63;;;35.20;39.20;;;;;;5065921;28;20922;-85
2022/08/22 13:49:12;;;;;;;1.70;1.60;;;35.80;37.70;;;;;;5069774;28;20821;-85
2022/08/22 13:51:46;;;;;;;1.80;1.70;;;36.20;37.40;;;;;;5067706;28;20183;-86